Portada
METAR-TAF:

METAR-TAF

Aeroports :

Dakar, Senegal

latitud: 14-44N, longitud: 017-30W, altitud: 27 m

Observació

L'informe es va fer fa 16 minuts, a les 10:00 UTC
Vent 4 kt del Sud-Oest
Temperatura 29°C
Humitat 79%
Pressió 1014 hPa
Visibilitat 10 km o més
Cel ennuvolat a una alçada de 1100 ft

METAR: GOOY 091000Z 22004KT 9999 BKN011 29/25 Q1014

Hora: 10:16 (10:16 UTC)

Pronòstic

L'informe es va fer fa 5 hores i 16 minuts, a les 05:00 UTC
Pronòstic vàlid del 09 a les 06 UTC al 10 a les 12 UTC
Vent 8 kt del Oest/Nord-Oest
Visibilitat 10 km o més
Núvols disperses a una alçada de 1300 ft
Probabilitat 30% :
Temporalment
l' 09 a les 09 UTC al 09 a les 15 UTC
Visibilitat: 4000 m
Cel ennuvolat a una alçada de 1200 ft
Escasses núvols a una alçada de 3000 ft, Cumulonimbus.
tempesta, pluja

TAF: GOOY 090500Z 0906/1012 30008KT 9999 SCT013 PROB30 TEMPO 0909/0915 4000 TSRA BKN012 FEW030CB

Observacions i pronòstics meteorològics de més de 4000 aeroports (METAR i TAF).

Les estacions disponibles són els punts grocs i vermells al mapa.

Posi el ratolí al punt desitjat per veure el nom de l'estació.

Feu clic per veure les observacions i els pronòstics meteorològics.

Per canviar el mapa: feu clic els botons verds amb una creu de color negre per apropar; al botó verd amb un guió per allunyar la imatge; o en les fletxes verdes per a mapes adjacents.


METAR-TAF: